Time;durP1;ratioP1;P1;durP2;ratioP2;P2;SDS_P1;SDS_P2;PMS_P1;PMS_P2;Temp;Humidity;BMP_temperature;BMP_pressure;BME280_temperature;BME280_humidity;BME280_pressure;Samples;Min_cycle;Max_cycle;Signal;HPM_P1;HPM_P2
2022/03/01 00:01:04;;;;;;;10.65;6.78;;;0.20;99.90;;;;;;6181699;23;20164;-83
2022/03/01 00:03:30;;;;;;;10.23;6.43;;;0.20;99.90;;;;;;6155010;23;20032;-85
2022/03/01 00:05:55;;;;;;;15.00;7.40;;;0.20;99.90;;;;;;6156803;23;20017;-85
2022/03/01 00:08:21;;;;;;;12.45;7.03;;;0.10;99.90;;;;;;6157238;23;20415;-84
2022/03/01 00:10:47;;;;;;;13.02;6.55;;;0.10;99.90;;;;;;6182693;23;20024;-83
2022/03/01 00:13:13;;;;;;;13.52;6.72;;;0.10;99.90;;;;;;6188130;23;20490;-84
2022/03/01 00:15:38;;;;;;;9.98;5.97;;;0.10;99.90;;;;;;6191979;23;20025;-84
2022/03/01 00:18:04;;;;;;;13.52;7.45;;;0.00;99.90;;;;;;6190546;23;20020;-84
2022/03/01 00:20:30;;;;;;;10.43;6.50;;;0.00;99.90;;;;;;6134039;23;20085;-84
2022/03/01 00:22:55;;;;;;;11.73;5.85;;;-0.10;99.90;;;;;;6158506;23;20456;-84
2022/03/01 00:25:22;;;;;;;11.98;7.85;;;-0.10;99.90;;;;;;6184661;23;20380;-84
2022/03/01 00:27:48;;;;;;;11.85;6.78;;;-0.20;99.90;;;;;;6184317;23;20017;-85
2022/03/01 00:30:13;;;;;;;8.45;6.30;;;0.30;99.90;;;;;;6184101;23;20084;-84
2022/03/01 00:32:39;;;;;;;;;;;-0.20;99.90;;;;;;6135140;23;20017;-84
2022/03/01 00:35:05;;;;;;;12.60;5.95;;;-0.20;99.90;;;;;;6207268;23;19920;-84
2022/03/01 00:37:31;;;;;;;;;;;-0.30;99.90;;;;;;6158444;23;20021;-84
2022/03/01 00:39:56;;;;;;;10.73;5.40;;;-0.20;99.90;;;;;;6186262;23;19940;-84
2022/03/01 00:42:22;;;;;;;10.18;6.53;;;-0.40;99.90;;;;;;6182866;23;20527;-84
2022/03/01 00:44:48;;;;;;;9.88;6.57;;;-0.40;99.90;;;;;;6183729;23;20025;-84
2022/03/01 00:47:14;;;;;;;9.93;6.18;;;-0.30;99.90;;;;;;6134013;23;20025;-84
2022/03/01 00:49:39;;;;;;;;;;;-0.50;99.90;;;;;;6158079;23;20017;-85
2022/03/01 00:52:05;;;;;;;11.90;6.63;;;-0.40;99.90;;;;;;6158965;23;19912;-84
2022/03/01 00:54:31;;;;;;;;;;;-0.40;99.90;;;;;;6184522;23;20017;-85
2022/03/01 00:56:56;;;;;;;11.80;6.50;;;-0.40;99.90;;;;;;6185046;23;20342;-85
2022/03/01 00:59:22;;;;;;;13.13;6.85;;;-0.20;99.90;;;;;;6190287;23;20036;-84
2022/03/01 01:01:48;;;;;;;12.90;7.72;;;-0.50;99.90;;;;;;6174171;23;20024;-85
2022/03/01 01:04:14;;;;;;;15.52;6.57;;;0.10;99.90;;;;;;6171343;23;20017;-84
2022/03/01 01:06:39;;;;;;;14.43;7.10;;;-0.50;99.90;;;;;;6184255;23;20437;-84
2022/03/01 01:09:05;;;;;;;13.35;7.80;;;0.10;99.90;;;;;;6159822;23;20021;-85
2022/03/01 01:11:31;;;;;;;12.57;5.97;;;-0.60;99.90;;;;;;6183729;23;20020;-84
2022/03/01 01:13:56;;;;;;;14.55;6.05;;;-0.60;99.90;;;;;;6168078;23;20600;-84
2022/03/01 01:16:22;;;;;;;10.20;6.32;;;-0.70;99.90;;;;;;6183056;23;20475;-84
2022/03/01 01:18:48;;;;;;;10.50;7.38;;;-0.50;99.90;;;;;;6182023;23;20017;-85
2022/03/01 01:21:14;;;;;;;9.60;7.00;;;-0.70;99.90;;;;;;6158626;23;20097;-85
2022/03/01 01:23:43;;;;;;;14.90;7.38;;;-0.70;99.90;;;;;;6157687;23;20028;-85
2022/03/01 01:26:09;;;;;;;11.40;6.78;;;-0.70;99.90;;;;;;6157894;23;20021;-85
2022/03/01 01:28:35;;;;;;;11.30;6.95;;;-0.70;99.90;;;;;;6182060;23;20021;-85
2022/03/01 01:31:01;;;;;;;9.18;6.25;;;-0.80;99.90;;;;;;6134196;23;20024;-85
2022/03/01 01:33:27;;;;;;;10.65;7.05;;;-0.70;99.90;;;;;;6182040;23;20519;-85
2022/03/01 01:35:52;;;;;;;10.73;7.07;;;-0.50;99.90;;;;;;6158057;23;20021;-85
2022/03/01 01:38:18;;;;;;;16.33;8.52;;;-0.70;99.90;;;;;;6183013;23;20017;-85
2022/03/01 01:40:44;;;;;;;9.20;6.10;;;-0.60;99.90;;;;;;6185145;23;20017;-85
2022/03/01 01:43:10;;;;;;;15.80;7.03;;;-0.50;99.90;;;;;;6190451;23;20027;-84
2022/03/01 01:45:35;;;;;;;10.77;7.15;;;-0.50;99.90;;;;;;6165066;23;20025;-84
2022/03/01 01:48:02;;;;;;;12.50;6.78;;;-0.60;99.90;;;;;;6194707;23;20453;-84
2022/03/01 01:50:30;;;;;;;8.57;6.47;;;-0.60;99.90;;;;;;6201667;23;20045;-85
2022/03/01 01:52:56;;;;;;;14.60;8.27;;;-0.60;99.90;;;;;;6201336;23;20017;-85
2022/03/01 01:55:24;;;;;;;12.77;6.85;;;-0.80;99.90;;;;;;6185136;23;20048;-85
2022/03/01 01:57:51;;;;;;;14.38;7.57;;;0.10;99.90;;;;;;6183561;23;20362;-84
2022/03/01 02:00:18;;;;;;;15.93;6.55;;;-0.90;99.90;;;;;;6134756;23;20024;-84
2022/03/01 02:02:44;;;;;;;13.30;7.47;;;-0.90;99.90;;;;;;6183398;23;20099;-84
2022/03/01 02:05:11;;;;;;;11.88;6.55;;;-0.90;99.90;;;;;;6157333;23;20028;-84
2022/03/01 02:07:43;;;;;;;12.00;7.10;;;-0.80;99.90;;;;;;6157193;23;20017;-84
2022/03/01 02:10:09;;;;;;;12.77;6.80;;;-0.80;99.90;;;;;;6157813;23;20099;-84
2022/03/01 02:12:35;;;;;;;13.18;6.35;;;-1.00;99.90;;;;;;6132850;23;20479;-84
2022/03/01 02:15:00;;;;;;;10.77;5.95;;;-1.00;99.90;;;;;;6161885;23;20020;-84
2022/03/01 02:17:27;;;;;;;;;;;-1.00;99.90;;;;;;6183725;23;20047;-84
2022/03/01 02:19:53;;;;;;;11.48;6.25;;;-1.00;99.90;;;;;;6181130;23;19943;-84
2022/03/01 02:22:19;;;;;;;8.73;5.63;;;-1.00;99.90;;;;;;6157474;23;20021;-84
2022/03/01 02:24:45;;;;;;;;;;;-1.00;99.90;;;;;;6133420;23;20021;-84
2022/03/01 02:27:11;;;;;;;9.45;6.00;;;-1.00;99.90;;;;;;6182511;23;19912;-84
2022/03/01 02:29:36;;;;;;;11.25;6.07;;;-1.00;99.90;;;;;;6182025;23;20023;-84
2022/03/01 02:32:06;;;;;;;17.98;7.15;;;-1.10;99.90;;;;;;6133005;23;20017;-84
2022/03/01 02:34:32;;;;;;;10.95;7.20;;;-1.10;99.90;;;;;;6167694;23;20052;-85
2022/03/01 02:36:58;;;;;;;13.27;6.80;;;-0.40;99.90;;;;;;6189255;23;20017;-84
2022/03/01 02:39:24;;;;;;;8.45;6.05;;;-1.10;99.90;;;;;;6184385;23;20408;-85
2022/03/01 02:41:50;;;;;;;;;;;-1.10;99.90;;;;;;6194259;23;20017;-84
2022/03/01 02:44:17;;;;;;;8.73;5.80;;;-1.10;99.90;;;;;;6158839;23;19916;-84
2022/03/01 02:46:42;;;;;;;9.15;5.97;;;-1.10;99.90;;;;;;6157817;23;20032;-85
2022/03/01 02:49:09;;;;;;;9.93;6.03;;;-1.00;99.90;;;;;;6156331;23;20016;-84
2022/03/01 02:51:36;;;;;;;10.10;6.30;;;-0.50;99.90;;;;;;6159024;23;20022;-85
2022/03/01 02:54:03;;;;;;;11.07;6.38;;;-1.10;99.90;;;;;;6157519;23;20017;-84
2022/03/01 02:56:28;;;;;;;11.13;7.45;;;-1.10;99.90;;;;;;6132994;23;20028;-84
2022/03/01 02:58:58;;;;;;;18.15;7.57;;;-1.10;99.90;;;;;;6156920;23;20033;-84
2022/03/01 03:01:28;;;;;;;16.05;8.52;;;-1.00;99.90;;;;;;6182474;23;20459;-84
2022/03/01 03:03:54;;;;;;;15.90;7.97;;;-1.00;99.90;;;;;;6156734;23;20029;-84
2022/03/01 03:06:20;;;;;;;12.98;7.68;;;-0.90;99.90;;;;;;6179782;23;20005;-84
2022/03/01 03:08:46;;;;;;;;;;;-0.90;99.90;;;;;;6205115;23;20025;-84
2022/03/01 03:11:12;;;;;;;11.80;7.65;;;-0.20;99.90;;;;;;6183394;23;19974;-85
2022/03/01 03:13:37;;;;;;;;;;;-0.90;99.90;;;;;;6157952;23;20457;-85
2022/03/01 03:16:04;;;;;;;19.20;8.65;;;-0.90;99.90;;;;;;6158902;23;19916;-86
2022/03/01 03:18:31;;;;;;;23.20;8.88;;;-1.00;99.90;;;;;;6135034;23;20049;-85
2022/03/01 03:20:57;;;;;;;17.08;8.50;;;-1.00;99.90;;;;;;6161295;23;20027;-85
2022/03/01 03:23:23;;;;;;;;;;;-0.90;99.90;;;;;;6170136;23;20032;-85
2022/03/01 03:25:48;;;;;;;13.77;7.47;;;-0.90;99.90;;;;;;6176707;23;19916;-85
2022/03/01 03:28:14;;;;;;;;;;;-0.20;99.90;;;;;;6161532;23;20033;-85
2022/03/01 03:30:40;;;;;;;16.15;7.25;;;-0.90;99.90;;;;;;6158751;23;19944;-85
2022/03/01 03:33:05;;;;;;;11.07;7.25;;;-0.80;99.90;;;;;;6131444;23;20039;-85
2022/03/01 03:35:31;;;;;;;9.95;6.70;;;-0.80;99.90;;;;;;6181460;23;20519;-86
2022/03/01 03:37:57;;;;;;;13.73;7.40;;;-0.70;99.90;;;;;;6132022;23;20024;-85
2022/03/01 03:40:23;;;;;;;13.35;7.00;;;0.10;99.90;;;;;;6156385;23;20089;-84
2022/03/01 03:42:49;;;;;;;9.40;6.22;;;-0.60;99.90;;;;;;6131409;23;20408;-85
2022/03/01 03:45:14;;;;;;;;;;;0.00;99.90;;;;;;6157138;23;20100;-85
2022/03/01 03:47:42;;;;;;;17.30;7.53;;;-0.50;99.90;;;;;;6182199;23;20002;-84
2022/03/01 03:50:09;;;;;;;15.35;6.63;;;-0.40;99.90;;;;;;6155951;23;20013;-84
2022/03/01 03:52:36;;;;;;;15.02;6.85;;;-0.40;99.90;;;;;;6185741;23;20072;-85
2022/03/01 03:55:03;;;;;;;17.60;6.55;;;-0.40;99.90;;;;;;6158461;23;20083;-84
2022/03/01 03:57:28;;;;;;;16.10;7.95;;;-0.40;99.90;;;;;;6184901;23;20415;-84
2022/03/01 03:59:54;;;;;;;12.27;8.00;;;-0.30;99.90;;;;;;6157911;23;20064;-84
2022/03/01 04:02:20;;;;;;;13.00;7.25;;;-0.30;99.90;;;;;;6134306;23;20400;-85
2022/03/01 04:04:45;;;;;;;10.27;6.75;;;-0.20;99.90;;;;;;6156166;23;20020;-84
2022/03/01 04:07:11;;;;;;;12.18;6.90;;;-0.30;99.90;;;;;;6183380;23;20025;-84
2022/03/01 04:09:37;;;;;;;13.65;6.80;;;-0.30;99.90;;;;;;6183862;23;20040;-84
2022/03/01 04:12:03;;;;;;;18.70;8.55;;;-0.30;99.90;;;;;;6182933;23;20317;-84
2022/03/01 04:14:29;;;;;;;10.93;6.88;;;-0.30;99.90;;;;;;6182703;23;20381;-85
2022/03/01 04:16:55;;;;;;;11.77;6.13;;;-0.30;99.90;;;;;;6158114;23;20017;-84
2022/03/01 04:19:22;;;;;;;14.63;7.22;;;-0.30;99.90;;;;;;6132651;23;20028;-85
2022/03/01 04:21:48;;;;;;;11.93;7.05;;;-0.30;99.90;;;;;;6158171;23;20036;-85
2022/03/01 04:24:14;;;;;;;14.60;7.57;;;-0.30;99.90;;;;;;6158256;23;20697;-85
2022/03/01 04:26:40;;;;;;;13.25;7.15;;;0.70;99.90;;;;;;6158254;23;20349;-85
2022/03/01 04:29:06;;;;;;;15.68;7.97;;;-0.30;99.90;;;;;;6157638;23;20092;-84
2022/03/01 04:31:32;;;;;;;11.45;6.35;;;-0.20;99.90;;;;;;6182956;23;20017;-84
2022/03/01 04:33:58;;;;;;;11.38;7.35;;;-0.20;99.90;;;;;;6181135;23;20028;-84
2022/03/01 04:36:23;;;;;;;12.73;7.30;;;1.20;99.90;;;;;;6158014;23;20096;-84
2022/03/01 04:38:51;;;;;;;13.73;6.80;;;0.00;99.90;;;;;;6157515;23;20525;-84
2022/03/01 04:41:17;;;;;;;9.98;6.25;;;0.10;99.90;;;;;;6158098;23;20021;-84
2022/03/01 04:43:42;;;;;;;8.65;5.85;;;0.10;99.90;;;;;;6157345;23;20478;-85
2022/03/01 04:46:08;;;;;;;10.18;6.28;;;0.20;99.90;;;;;;6158035;23;20100;-85
2022/03/01 04:48:35;;;;;;;12.07;7.03;;;0.20;99.90;;;;;;6181522;23;20384;-85
2022/03/01 04:51:01;;;;;;;13.30;5.90;;;0.30;99.90;;;;;;6182644;23;20051;-85
2022/03/01 04:53:26;;;;;;;11.27;6.00;;;0.50;99.90;;;;;;6157691;23;20203;-85
2022/03/01 04:55:52;;;;;;;16.90;7.72;;;1.30;99.90;;;;;;6108428;23;20025;-84
2022/03/01 04:58:18;;;;;;;12.77;6.45;;;0.50;99.90;;;;;;6157361;23;20020;-85
2022/03/01 05:00:44;;;;;;;12.73;6.93;;;0.60;99.90;;;;;;6181831;23;20084;-84
2022/03/01 05:03:09;;;;;;;10.27;6.43;;;0.60;99.90;;;;;;6157212;23;20039;-86
2022/03/01 05:05:35;;;;;;;10.93;7.00;;;0.60;99.90;;;;;;6182542;23;20021;-85
2022/03/01 05:08:01;;;;;;;8.45;5.60;;;1.00;99.90;;;;;;6157215;23;20021;-84
2022/03/01 05:10:26;;;;;;;14.15;6.90;;;0.80;99.90;;;;;;6157815;23;20344;-85
2022/03/01 05:12:58;;;;;;;11.38;6.38;;;0.80;99.90;;;;;;6157544;23;20087;-85
2022/03/01 05:15:27;;;;;;;13.38;6.88;;;0.90;99.90;;;;;;6182063;23;20075;-85
2022/03/01 05:17:54;;;;;;;11.10;5.75;;;1.00;99.90;;;;;;6157855;23;20083;-85
2022/03/01 05:20:20;;;;;;;11.93;6.32;;;1.00;99.90;;;;;;6181865;23;20056;-84
2022/03/01 05:22:49;;;;;;;12.23;6.78;;;1.10;99.90;;;;;;6158364;23;20028;-85
2022/03/01 05:25:17;;;;;;;11.93;6.97;;;1.10;99.90;;;;;;6158114;23;20099;-86
2022/03/01 05:27:46;;;;;;;13.82;6.95;;;1.40;99.90;;;;;;6182954;23;20017;-86
2022/03/01 05:30:14;;;;;;;11.65;6.78;;;1.20;99.90;;;;;;6183642;23;20025;-85
2022/03/01 05:32:44;;;;;;;10.43;6.03;;;1.20;99.90;;;;;;6184155;23;20013;-84
2022/03/01 05:35:13;;;;;;;12.70;6.38;;;1.80;99.90;;;;;;6157648;23;20032;-85
2022/03/01 05:37:40;;;;;;;9.63;6.00;;;1.20;99.90;;;;;;6158483;23;20048;-84
2022/03/01 05:40:07;;;;;;;13.30;6.80;;;1.20;99.90;;;;;;6158255;23;20441;-84
2022/03/01 05:42:34;;;;;;;16.83;7.30;;;1.20;99.90;;;;;;6183265;23;20021;-84
2022/03/01 05:45:00;;;;;;;14.05;7.50;;;1.30;99.90;;;;;;6162200;23;20025;-85
2022/03/01 05:47:26;;;;;;;10.90;6.63;;;1.00;99.90;;;;;;6174837;23;20020;-85
2022/03/01 05:49:53;;;;;;;10.82;6.35;;;1.30;99.90;;;;;;6179455;23;20027;-85
2022/03/01 05:52:19;;;;;;;11.68;6.35;;;1.30;99.90;;;;;;6134998;23;20018;-84
2022/03/01 05:54:45;;;;;;;12.93;6.88;;;1.30;99.90;;;;;;6183795;23;20017;-86
2022/03/01 05:57:11;;;;;;;10.52;6.05;;;1.30;99.90;;;;;;6135769;23;20024;-85
2022/03/01 05:59:36;;;;;;;10.77;5.97;;;1.40;99.90;;;;;;6190055;23;20016;-86
2022/03/01 06:02:03;;;;;;;13.52;6.35;;;1.40;99.90;;;;;;6143864;23;20021;-86
2022/03/01 06:04:29;;;;;;;11.68;6.15;;;1.50;99.90;;;;;;6181488;23;20113;-86
2022/03/01 06:06:54;;;;;;;14.70;6.72;;;1.50;99.90;;;;;;6144021;23;20040;-86
2022/03/01 06:09:20;;;;;;;15.35;7.60;;;3.10;99.90;;;;;;6165442;23;20017;-85
2022/03/01 06:11:55;;;;;;;12.23;6.85;;;1.60;99.90;;;;;;6140423;23;20120;-84
2022/03/01 06:14:20;;;;;;;9.70;6.30;;;1.60;99.90;;;;;;6170259;23;20017;-83
2022/03/01 06:16:46;;;;;;;14.02;7.53;;;3.20;99.90;;;;;;6182545;23;20558;-84
2022/03/01 06:19:12;;;;;;;13.15;6.60;;;1.60;99.90;;;;;;6180697;23;20020;-84
2022/03/01 06:21:38;;;;;;;9.93;5.88;;;1.60;99.90;;;;;;6181726;23;20409;-84
2022/03/01 06:24:05;;;;;;;8.00;5.97;;;1.50;99.90;;;;;;6156251;23;20103;-83
2022/03/01 06:26:32;;;;;;;8.98;6.07;;;1.50;99.90;;;;;;6156477;23;20053;-83
2022/03/01 06:28:58;;;;;;;11.23;6.60;;;1.50;99.90;;;;;;6135220;23;20024;-83
2022/03/01 06:31:24;;;;;;;10.15;7.35;;;1.50;99.90;;;;;;6156389;23;20017;-83
2022/03/01 06:33:49;;;;;;;12.80;7.00;;;1.50;99.90;;;;;;6137783;23;20017;-84
2022/03/01 06:36:15;;;;;;;10.80;6.65;;;1.50;99.90;;;;;;6139286;23;20059;-84
2022/03/01 06:38:41;;;;;;;12.57;7.07;;;1.50;99.90;;;;;;6156737;23;20083;-85
2022/03/01 06:41:07;;;;;;;;;;;1.50;99.90;;;;;;6168101;23;20013;-84
2022/03/01 06:43:32;;;;;;;8.25;6.20;;;1.60;99.90;;;;;;6190678;23;19967;-84
2022/03/01 06:45:58;;;;;;;12.88;7.10;;;1.80;99.90;;;;;;6148373;23;20025;-85
2022/03/01 06:48:24;;;;;;;10.50;6.07;;;1.60;99.90;;;;;;6130802;23;20103;-84
2022/03/01 06:50:49;;;;;;;13.32;7.47;;;1.60;99.90;;;;;;6159861;23;20084;-84
2022/03/01 06:53:16;;;;;;;11.88;6.85;;;1.70;99.90;;;;;;6132703;23;20440;-85
2022/03/01 06:55:42;;;;;;;13.88;6.20;;;1.70;99.90;;;;;;6152338;23;20152;-85
2022/03/01 06:58:08;;;;;;;;;;;2.60;99.90;;;;;;6179758;23;20021;-85
2022/03/01 07:00:34;;;;;;;16.42;8.43;;;1.70;99.90;;;;;;6155000;23;19916;-85
2022/03/01 07:03:00;;;;;;;10.73;7.20;;;1.80;99.90;;;;;;6154464;23;20456;-84
2022/03/01 07:05:26;;;;;;;11.60;7.80;;;1.80;99.90;;;;;;6155784;23;20020;-85
2022/03/01 07:07:51;;;;;;;16.67;6.80;;;1.90;99.90;;;;;;6180040;23;20063;-85
2022/03/01 07:10:17;;;;;;;17.55;7.28;;;2.90;99.90;;;;;;6130046;23;20515;-84
2022/03/01 07:12:44;;;;;;;16.60;7.13;;;2.00;99.90;;;;;;6178839;23;20064;-85
2022/03/01 07:15:10;;;;;;;17.58;9.02;;;2.10;99.90;;;;;;6154499;23;20326;-85
2022/03/01 07:17:36;;;;;;;;;;;2.20;99.90;;;;;;6156199;23;20021;-84
2022/03/01 07:20:03;;;;;;;15.75;7.53;;;2.30;99.90;;;;;;6179154;23;19923;-84
2022/03/01 07:22:29;;;;;;;18.92;7.82;;;2.30;99.90;;;;;;6180655;23;20017;-85
2022/03/01 07:24:55;;;;;;;14.90;8.30;;;2.40;99.90;;;;;;6130017;23;20409;-84
2022/03/01 07:27:20;;;;;;;12.90;9.13;;;2.50;99.90;;;;;;6106045;23;20124;-84
2022/03/01 07:29:46;;;;;;;19.38;8.88;;;2.90;99.90;;;;;;6180957;23;20029;-85
2022/03/01 07:32:12;;;;;;;13.43;7.90;;;2.60;99.90;;;;;;6130858;23;20083;-85
2022/03/01 07:34:38;;;;;;;23.95;8.27;;;2.80;99.90;;;;;;6179372;23;20059;-85
2022/03/01 07:37:06;;;;;;;13.68;8.02;;;2.80;99.90;;;;;;6126232;23;20017;-85
2022/03/01 07:39:31;;;;;;;15.35;7.97;;;2.80;99.90;;;;;;6155198;23;20051;-84
2022/03/01 07:41:57;;;;;;;14.77;7.10;;;2.90;99.90;;;;;;6153473;23;20124;-85
2022/03/01 07:44:23;;;;;;;10.60;7.03;;;3.00;99.90;;;;;;6106010;23;20123;-84
2022/03/01 07:46:49;;;;;;;14.93;8.20;;;3.00;99.90;;;;;;6156238;23;20017;-84
2022/03/01 07:49:15;;;;;;;15.57;7.82;;;3.10;99.90;;;;;;6180005;23;20021;-84
2022/03/01 07:51:41;;;;;;;16.45;7.93;;;3.20;99.90;;;;;;6155900;23;20041;-84
2022/03/01 07:54:07;;;;;;;14.77;7.57;;;3.30;99.90;;;;;;6153456;23;20052;-84
2022/03/01 07:56:32;;;;;;;;;;;3.20;99.90;;;;;;6180165;23;20104;-84
2022/03/01 07:58:58;;;;;;;10.05;7.32;;;3.30;99.90;;;;;;6165757;23;20303;-84
2022/03/01 08:01:24;;;;;;;12.85;7.35;;;3.40;99.90;;;;;;6179064;23;20040;-84
2022/03/01 08:03:50;;;;;;;13.93;8.32;;;3.40;99.90;;;;;;6129118;23;20020;-85
2022/03/01 08:06:17;;;;;;;19.00;7.63;;;3.50;99.90;;;;;;6128659;23;20614;-84
2022/03/01 08:08:43;;;;;;;17.42;8.45;;;3.50;99.90;;;;;;6153009;23;20344;-85
2022/03/01 08:11:09;;;;;;;9.68;7.32;;;3.50;99.90;;;;;;6129070;23;20025;-84
2022/03/01 08:13:36;;;;;;;14.43;8.65;;;3.60;99.90;;;;;;6153624;23;20024;-84
2022/03/01 08:16:05;;;;;;;14.55;7.70;;;3.60;99.90;;;;;;6153938;23;20479;-84
2022/03/01 08:18:31;;;;;;;11.75;7.38;;;3.60;99.90;;;;;;6153788;23;20017;-84
2022/03/01 08:20:58;;;;;;;;;;;3.70;99.90;;;;;;6155072;23;20013;-83
2022/03/01 08:23:24;;;;;;;11.88;7.30;;;4.80;99.90;;;;;;6156209;23;20126;-84
2022/03/01 08:25:50;;;;;;;13.55;8.38;;;3.80;99.90;;;;;;6180915;23;20028;-84
2022/03/01 08:28:16;;;;;;;13.82;8.52;;;3.80;99.90;;;;;;6182678;23;20021;-83
2022/03/01 08:30:42;;;;;;;14.05;8.43;;;3.80;99.90;;;;;;6122259;23;20032;-84
2022/03/01 08:33:08;;;;;;;14.77;7.55;;;3.90;99.90;;;;;;6187324;23;20048;-84
2022/03/01 08:35:34;;;;;;;15.75;7.65;;;4.00;99.90;;;;;;6179436;23;20087;-84
2022/03/01 08:38:05;;;;;;;13.18;7.65;;;4.00;99.90;;;;;;6161941;23;20016;-84
2022/03/01 08:40:39;;;;;;;15.80;8.27;;;4.20;99.90;;;;;;6170192;23;20021;-84
2022/03/01 08:43:07;;;;;;;25.38;7.57;;;4.10;99.90;;;;;;6158677;23;20111;-84
2022/03/01 08:45:33;;;;;;;12.68;6.95;;;4.20;99.90;;;;;;6156499;23;20028;-84
2022/03/01 08:48:00;;;;;;;;;;;4.90;99.90;;;;;;6155631;23;20016;-84
2022/03/01 08:50:25;;;;;;;11.68;6.53;;;4.40;99.90;;;;;;6131412;23;19912;-84
2022/03/01 08:52:51;;;;;;;16.65;8.00;;;4.60;99.90;;;;;;6180483;23;20023;-85
2022/03/01 08:55:17;;;;;;;13.82;7.93;;;4.70;99.90;;;;;;6154506;23;20028;-85
2022/03/01 08:57:43;;;;;;;12.73;6.93;;;4.90;99.90;;;;;;6181160;23;20025;-85
2022/03/01 09:00:11;;;;;;;14.73;9.02;;;5.00;99.90;;;;;;6180123;23;20104;-85
2022/03/01 09:02:37;;;;;;;13.88;7.82;;;5.10;99.90;;;;;;6155649;23;20021;-85
2022/03/01 09:05:05;;;;;;;16.15;7.70;;;5.20;99.90;;;;;;6178874;23;20036;-84
2022/03/01 09:07:31;;;;;;;16.02;8.57;;;5.40;99.90;;;;;;6131516;23;20337;-85
2022/03/01 09:09:57;;;;;;;15.45;8.35;;;5.50;99.90;;;;;;6180646;23;20482;-85
2022/03/01 09:12:23;;;;;;;15.48;8.20;;;5.70;99.90;;;;;;6132900;23;20024;-85
2022/03/01 09:14:48;;;;;;;14.48;7.85;;;5.80;99.90;;;;;;6135491;23;20059;-85
2022/03/01 09:17:14;;;;;;;17.00;10.82;;;6.00;99.90;;;;;;6164927;23;20040;-84
2022/03/01 09:19:40;;;;;;;11.68;8.10;;;6.20;99.90;;;;;;6184534;23;20013;-85
2022/03/01 09:22:06;;;;;;;17.27;9.50;;;6.20;99.90;;;;;;6181515;23;20040;-84
2022/03/01 09:24:32;;;;;;;12.77;7.85;;;6.30;99.90;;;;;;6131785;23;20021;-85
2022/03/01 09:27:01;;;;;;;13.55;7.75;;;6.40;99.90;;;;;;6168367;23;20353;-85
2022/03/01 09:29:30;;;;;;;14.00;8.18;;;6.40;99.90;;;;;;6179871;23;20013;-85
2022/03/01 09:31:57;;;;;;;12.27;9.02;;;6.40;99.90;;;;;;6131613;23;20338;-84
2022/03/01 09:34:23;;;;;;;13.65;7.88;;;6.50;99.90;;;;;;6177866;23;20025;-84
2022/03/01 09:36:49;;;;;;;14.07;8.45;;;6.50;99.90;;;;;;6155360;23;20337;-83
2022/03/01 09:39:15;;;;;;;15.25;8.65;;;6.60;99.90;;;;;;6179339;23;20025;-83
2022/03/01 09:41:42;;;;;;;13.75;7.80;;;6.40;99.90;;;;;;6154642;23;20357;-84
2022/03/01 09:44:09;;;;;;;20.40;8.75;;;6.40;99.90;;;;;;6178066;23;20032;-83
2022/03/01 09:46:35;;;;;;;17.10;8.23;;;6.40;99.90;;;;;;6179667;23;20025;-83
2022/03/01 09:49:02;;;;;;;;;;;6.30;99.90;;;;;;6179491;23;20025;-84
2022/03/01 09:51:27;;;;;;;13.73;6.75;;;6.40;99.90;;;;;;6179925;23;19916;-83
2022/03/01 09:53:54;;;;;;;15.88;8.65;;;6.40;99.90;;;;;;6154507;23;20096;-84
2022/03/01 09:56:20;;;;;;;13.32;8.48;;;6.40;99.90;;;;;;6105209;23;20025;-83
2022/03/01 09:58:50;;;;;;;12.90;7.95;;;6.40;99.90;;;;;;6155084;23;20091;-84
2022/03/01 10:01:18;;;;;;;12.70;7.45;;;6.30;99.90;;;;;;6154210;23;20048;-84
2022/03/01 10:03:52;;;;;;;14.70;8.52;;;6.60;99.90;;;;;;6178295;23;20056;-83
2022/03/01 10:06:21;;;;;;;15.55;8.30;;;6.70;99.90;;;;;;6178614;23;20091;-83
2022/03/01 10:08:56;;;;;;;15.13;8.85;;;6.80;99.90;;;;;;6178554;23;20079;-83
2022/03/01 10:11:23;;;;;;;15.05;9.05;;;7.00;99.90;;;;;;6178561;23;20083;-82
2022/03/01 10:13:57;;;;;;;15.50;8.20;;;7.10;99.90;;;;;;6181110;23;20016;-83
2022/03/01 10:16:23;;;;;;;14.10;8.13;;;7.20;99.90;;;;;;6155281;23;20025;-84
2022/03/01 10:18:52;;;;;;;11.32;7.93;;;7.40;99.90;;;;;;6178510;23;20055;-84
2022/03/01 10:21:19;;;;;;;19.20;9.57;;;8.10;99.90;;;;;;6179487;23;20092;-83
2022/03/01 10:23:48;;;;;;;12.90;7.97;;;7.60;99.90;;;;;;6139707;23;20100;-84
2022/03/01 10:26:23;;;;;;;14.98;8.48;;;7.80;99.90;;;;;;6179421;23;20457;-84
2022/03/01 10:28:50;;;;;;;14.95;8.38;;;8.00;99.90;;;;;;6155557;23;20029;-83
2022/03/01 10:31:24;;;;;;;15.68;8.73;;;8.20;99.90;;;;;;6161896;23;20032;-84
2022/03/01 10:33:58;;;;;;;16.40;8.38;;;8.20;99.90;;;;;;6180056;23;20032;-84
2022/03/01 10:36:27;;;;;;;17.20;9.75;;;8.30;99.90;;;;;;6178697;23;20074;-84
2022/03/01 10:39:15;;;;;;;18.00;11.52;;;8.40;99.90;;;;;;6148080;23;20020;-83
2022/03/01 10:41:44;;;;;;;;;;;8.40;99.30;;;;;;6179402;23;20484;-84
2022/03/01 10:44:28;;;;;;;19.17;12.73;;;8.40;98.70;;;;;;6177910;23;19938;-83
2022/03/01 10:47:03;;;;;;;16.88;9.77;;;8.30;94.90;;;;;;6153473;23;20037;-84
2022/03/01 10:49:32;;;;;;;17.10;9.63;;;8.30;95.30;;;;;;6152168;23;20017;-84
2022/03/01 10:52:02;;;;;;;13.02;8.80;;;8.30;94.30;;;;;;6152638;23;20108;-84
2022/03/01 10:54:30;;;;;;;18.35;9.73;;;8.30;95.80;;;;;;6152805;23;20032;-84
2022/03/01 10:56:58;;;;;;;14.80;8.50;;;8.30;96.20;;;;;;6178349;23;20025;-84
2022/03/01 10:59:25;;;;;;;13.60;7.85;;;8.40;96.90;;;;;;6153174;23;20075;-85
2022/03/01 11:01:52;;;;;;;11.93;8.25;;;8.40;96.70;;;;;;6153698;23;20028;-84
2022/03/01 11:04:21;;;;;;;16.17;8.55;;;8.40;96.40;;;;;;6177912;23;20445;-84
2022/03/01 11:06:48;;;;;;;16.80;10.30;;;8.40;98.00;;;;;;6106305;23;20331;-84
2022/03/01 11:09:15;;;;;;;17.20;9.75;;;8.40;97.40;;;;;;6153308;23;20060;-84
2022/03/01 11:11:43;;;;;;;15.25;8.60;;;8.40;97.50;;;;;;6153108;23;20032;-84
2022/03/01 11:14:11;;;;;;;15.20;8.82;;;8.40;98.00;;;;;;6177749;23;20021;-84
2022/03/01 11:17:06;;;;;;;20.10;9.57;;;8.50;98.80;;;;;;6152953;23;20021;-84
2022/03/01 11:19:44;;;;;;;14.50;8.38;;;8.40;97.90;;;;;;6102076;23;20052;-83
2022/03/01 11:22:41;;;;;;;14.40;8.88;;;8.40;98.40;;;;;;6178090;23;20028;-83
2022/03/01 11:25:18;;;;;;;18.23;9.38;;;8.50;98.30;;;;;;6128607;23;20463;-83
2022/03/01 11:27:47;;;;;;;15.18;9.23;;;8.50;97.50;;;;;;6153038;23;20079;-83
2022/03/01 11:30:15;;;;;;;19.52;10.30;;;8.50;96.80;;;;;;6177357;23;20032;-83
2022/03/01 11:32:44;;;;;;;14.70;9.52;;;8.50;97.40;;;;;;6178274;23;20029;-83
2022/03/01 11:35:22;;;;;;;15.23;9.55;;;8.50;97.10;;;;;;6176940;23;20028;-83
2022/03/01 11:38:02;;;;;;;14.90;9.15;;;8.50;97.00;;;;;;6153106;23;20021;-83
2022/03/01 11:40:31;;;;;;;13.82;9.20;;;8.50;97.20;;;;;;6177174;23;20048;-83
2022/03/01 11:43:17;;;;;;;12.43;8.57;;;8.50;97.50;;;;;;6152633;23;20021;-83
2022/03/01 11:45:49;;;;;;;14.55;9.68;;;8.60;97.50;;;;;;6177134;23;20060;-83
2022/03/01 11:48:21;;;;;;;19.30;9.88;;;8.70;96.00;;;;;;6152295;23;20020;-82
2022/03/01 11:50:58;;;;;;;13.25;9.43;;;8.70;95.70;;;;;;6128806;23;20032;-84
2022/03/01 11:53:29;;;;;;;16.38;9.48;;;8.60;95.60;;;;;;6176346;23;20063;-84
2022/03/01 11:55:58;;;;;;;14.73;9.70;;;8.60;95.30;;;;;;6152704;23;20044;-84
2022/03/01 11:58:24;;;;;;;16.42;9.55;;;8.50;95.60;;;;;;6177827;23;20365;-84
2022/03/01 12:00:51;;;;;;;17.50;9.32;;;8.40;94.60;;;;;;6164396;23;20021;-81
2022/03/01 12:03:20;;;;;;;16.27;9.27;;;8.30;95.60;;;;;;6153755;23;20013;-82
2022/03/01 12:05:49;;;;;;;16.05;9.15;;;8.30;96.60;;;;;;6176804;23;20376;-81
2022/03/01 12:08:16;;;;;;;11.77;8.77;;;8.30;96.50;;;;;;6175927;23;20459;-82
2022/03/01 12:11:04;;;;;;;14.73;8.98;;;8.20;96.90;;;;;;6150087;23;20025;-82
2022/03/01 12:13:41;;;;;;;13.70;8.73;;;8.20;97.40;;;;;;6176489;23;20021;-83
2022/03/01 12:16:08;;;;;;;22.45;11.82;;;8.20;97.60;;;;;;6177853;23;20025;-81
2022/03/01 12:18:37;;;;;;;21.30;9.23;;;8.20;98.30;;;;;;6175669;23;20432;-82
2022/03/01 12:21:06;;;;;;;15.88;8.75;;;8.30;97.90;;;;;;6180252;23;20113;-82
2022/03/01 12:23:33;;;;;;;16.38;9.30;;;8.20;96.40;;;;;;6178557;23;20453;-82
2022/03/01 12:26:01;;;;;;;18.58;9.77;;;8.20;95.10;;;;;;6153327;23;20021;-82
2022/03/01 12:28:34;;;;;;;14.68;8.40;;;8.10;95.00;;;;;;6153264;23;20021;-83
2022/03/01 12:31:10;;;;;;;16.48;9.52;;;8.00;96.10;;;;;;6178764;23;20036;-82
2022/03/01 12:33:36;;;;;;;14.63;9.07;;;8.00;96.20;;;;;;6153081;23;20025;-81
2022/03/01 12:36:03;;;;;;;15.60;9.63;;;8.00;96.70;;;;;;6179660;23;20468;-81
2022/03/01 12:38:34;;;;;;;13.32;8.35;;;8.00;96.90;;;;;;6178528;23;20340;-81
2022/03/01 12:41:08;;;;;;;16.52;10.38;;;8.10;96.70;;;;;;6179368;23;20317;-82
2022/03/01 12:43:34;;;;;;;19.08;9.10;;;8.20;96.80;;;;;;6153458;23;20029;-81
2022/03/01 12:46:00;;;;;;;14.10;9.52;;;8.20;97.40;;;;;;6178644;23;20031;-81
2022/03/01 12:48:26;;;;;;;18.98;10.43;;;8.40;97.10;;;;;;6177116;23;20466;-81
2022/03/01 12:50:53;;;;;;;16.77;9.50;;;8.50;96.60;;;;;;6179543;23;20029;-81